sensor_id;sensor_type;location;lat;lon;timestamp;temperature;humidity
21590;DHT22;10957;50.968;6.828;2022-12-18T00:02:09;-4.70;99.90
21590;DHT22;10957;50.968;6.828;2022-12-18T00:07:10;-4.70;99.90
21590;DHT22;10957;50.968;6.828;2022-12-18T00:12:11;-4.70;99.90
21590;DHT22;10957;50.968;6.828;2022-12-18T00:17:13;-4.80;99.90
21590;DHT22;10957;50.968;6.828;2022-12-18T00:22:14;-4.60;99.90
21590;DHT22;10957;50.968;6.828;2022-12-18T00:27:15;-4.90;99.90
21590;DHT22;10957;50.968;6.828;2022-12-18T00:32:16;-4.90;99.90
21590;DHT22;10957;50.968;6.828;2022-12-18T00:37:17;-4.90;99.90
21590;DHT22;10957;50.968;6.828;2022-12-18T00:42:20;-4.70;99.90
21590;DHT22;10957;50.968;6.828;2022-12-18T00:47:40;-4.90;99.90
21590;DHT22;10957;50.968;6.828;2022-12-18T00:52:42;-4.90;99.90
21590;DHT22;10957;50.968;6.828;2022-12-18T00:57:44;-5.00;99.90
21590;DHT22;10957;50.968;6.828;2022-12-18T01:02:46;-4.80;99.90
21590;DHT22;10957;50.968;6.828;2022-12-18T01:07:48;-4.90;99.90
21590;DHT22;10957;50.968;6.828;2022-12-18T01:12:50;-5.10;99.90
21590;DHT22;10957;50.968;6.828;2022-12-18T01:17:53;-5.80;99.90
21590;DHT22;10957;50.968;6.828;2022-12-18T01:22:54;-5.00;99.90
21590;DHT22;10957;50.968;6.828;2022-12-18T01:27:55;-5.20;99.90
21590;DHT22;10957;50.968;6.828;2022-12-18T01:32:57;-5.10;99.90
21590;DHT22;10957;50.968;6.828;2022-12-18T01:37:58;-5.10;99.90
21590;DHT22;10957;50.968;6.828;2022-12-18T01:42:59;-5.10;99.90
21590;DHT22;10957;50.968;6.828;2022-12-18T01:48:05;-5.00;99.90
21590;DHT22;10957;50.968;6.828;2022-12-18T01:53:11;-4.90;99.90
21590;DHT22;10957;50.968;6.828;2022-12-18T01:58:14;-4.90;99.90
21590;DHT22;10957;50.968;6.828;2022-12-18T02:03:16;-5.00;99.90
21590;DHT22;10957;50.968;6.828;2022-12-18T02:14:04;-5.20;99.90
21590;DHT22;10957;50.968;6.828;2022-12-18T02:29:50;-5.10;99.90
21590;DHT22;10957;50.968;6.828;2022-12-18T02:34:53;-5.10;99.90
21590;DHT22;10957;50.968;6.828;2022-12-18T02:39:59;-5.70;99.90
21590;DHT22;10957;50.968;6.828;2022-12-18T02:45:01;-5.00;99.90
21590;DHT22;10957;50.968;6.828;2022-12-18T02:50:19;-5.20;99.90
21590;DHT22;10957;50.968;6.828;2022-12-18T02:55:53;-4.80;99.90
21590;DHT22;10957;50.968;6.828;2022-12-18T03:01:10;-4.90;99.90
21590;DHT22;10957;50.968;6.828;2022-12-18T03:06:28;-5.10;99.90
21590;DHT22;10957;50.968;6.828;2022-12-18T03:11:32;-5.70;99.90
21590;DHT22;10957;50.968;6.828;2022-12-18T03:16:56;-5.20;99.90
21590;DHT22;10957;50.968;6.828;2022-12-18T03:22:00;-5.20;99.90
21590;DHT22;10957;50.968;6.828;2022-12-18T03:27:13;-5.30;99.90
21590;DHT22;10957;50.968;6.828;2022-12-18T03:32:29;-5.10;99.90
21590;DHT22;10957;50.968;6.828;2022-12-18T03:37:33;-5.00;99.90
21590;DHT22;10957;50.968;6.828;2022-12-18T03:58:11;-5.00;99.90
21590;DHT22;10957;50.968;6.828;2022-12-18T04:03:28;-4.90;99.90
21590;DHT22;10957;50.968;6.828;2022-12-18T04:08:32;-5.10;99.90
21590;DHT22;10957;50.968;6.828;2022-12-18T04:13:39;-5.00;99.90
21590;DHT22;10957;50.968;6.828;2022-12-18T04:18:50;-5.20;99.90
21590;DHT22;10957;50.968;6.828;2022-12-18T04:23:52;-5.70;99.90
21590;DHT22;10957;50.968;6.828;2022-12-18T04:28:56;-5.20;99.90
21590;DHT22;10957;50.968;6.828;2022-12-18T04:33:57;-5.20;99.90
21590;DHT22;10957;50.968;6.828;2022-12-18T04:38:58;-5.20;99.90
21590;DHT22;10957;50.968;6.828;2022-12-18T04:43:59;-5.10;99.90
21590;DHT22;10957;50.968;6.828;2022-12-18T04:49:01;-5.30;99.90
21590;DHT22;10957;50.968;6.828;2022-12-18T04:54:02;-5.30;99.90
21590;DHT22;10957;50.968;6.828;2022-12-18T04:59:03;-5.30;99.90
21590;DHT22;10957;50.968;6.828;2022-12-18T05:04:05;-5.30;99.90
21590;DHT22;10957;50.968;6.828;2022-12-18T05:09:06;-5.90;99.90
21590;DHT22;10957;50.968;6.828;2022-12-18T05:14:08;-5.30;99.90
21590;DHT22;10957;50.968;6.828;2022-12-18T05:19:09;-5.20;99.90
21590;DHT22;10957;50.968;6.828;2022-12-18T05:24:10;-5.10;99.90
21590;DHT22;10957;50.968;6.828;2022-12-18T05:29:11;-5.20;99.90
21590;DHT22;10957;50.968;6.828;2022-12-18T05:34:13;-5.30;99.90
21590;DHT22;10957;50.968;6.828;2022-12-18T05:39:14;-5.10;99.90
21590;DHT22;10957;50.968;6.828;2022-12-18T05:44:15;-5.30;99.90
21590;DHT22;10957;50.968;6.828;2022-12-18T05:49:16;-5.20;99.90
21590;DHT22;10957;50.968;6.828;2022-12-18T05:54:18;-5.80;99.90
21590;DHT22;10957;50.968;6.828;2022-12-18T05:59:19;-4.90;99.90
21590;DHT22;10957;50.968;6.828;2022-12-18T06:04:20;-5.10;99.90
21590;DHT22;10957;50.968;6.828;2022-12-18T06:09:21;-5.70;99.90
21590;DHT22;10957;50.968;6.828;2022-12-18T06:14:23;-5.00;99.90
21590;DHT22;10957;50.968;6.828;2022-12-18T06:19:24;-5.00;99.90
21590;DHT22;10957;50.968;6.828;2022-12-18T06:24:25;-5.10;99.90
21590;DHT22;10957;50.968;6.828;2022-12-18T06:29:26;-5.20;99.90
21590;DHT22;10957;50.968;6.828;2022-12-18T06:34:27;-4.90;99.90
21590;DHT22;10957;50.968;6.828;2022-12-18T06:39:29;-5.20;99.90
21590;DHT22;10957;50.968;6.828;2022-12-18T06:44:31;-5.00;99.90
21590;DHT22;10957;50.968;6.828;2022-12-18T06:49:32;-5.20;99.90
21590;DHT22;10957;50.968;6.828;2022-12-18T06:54:33;-4.80;99.90
21590;DHT22;10957;50.968;6.828;2022-12-18T06:59:34;-5.30;99.90
21590;DHT22;10957;50.968;6.828;2022-12-18T07:04:36;-5.00;99.90
21590;DHT22;10957;50.968;6.828;2022-12-18T07:09:40;-4.90;99.90
21590;DHT22;10957;50.968;6.828;2022-12-18T07:14:41;-5.00;99.90
21590;DHT22;10957;50.968;6.828;2022-12-18T07:19:42;-4.90;99.90
21590;DHT22;10957;50.968;6.828;2022-12-18T07:24:43;-5.50;99.90
21590;DHT22;10957;50.968;6.828;2022-12-18T07:29:45;-4.90;99.90
21590;DHT22;10957;50.968;6.828;2022-12-18T07:34:46;-4.80;99.90
21590;DHT22;10957;50.968;6.828;2022-12-18T07:39:47;-4.70;99.90
21590;DHT22;10957;50.968;6.828;2022-12-18T07:44:48;-5.30;99.90
21590;DHT22;10957;50.968;6.828;2022-12-18T07:49:50;-4.80;99.90
21590;DHT22;10957;50.968;6.828;2022-12-18T07:54:52;-4.80;99.90
21590;DHT22;10957;50.968;6.828;2022-12-18T07:59:53;-4.70;99.90
21590;DHT22;10957;50.968;6.828;2022-12-18T08:04:54;-4.30;99.90
21590;DHT22;10957;50.968;6.828;2022-12-18T08:09:55;-4.80;99.90
21590;DHT22;10957;50.968;6.828;2022-12-18T08:14:56;-4.40;99.90
21590;DHT22;10957;50.968;6.828;2022-12-18T08:19:58;-4.40;99.90
21590;DHT22;10957;50.968;6.828;2022-12-18T08:24:59;-4.40;99.90
21590;DHT22;10957;50.968;6.828;2022-12-18T08:30:00;-4.00;99.90
21590;DHT22;10957;50.968;6.828;2022-12-18T08:35:01;-4.10;99.90
21590;DHT22;10957;50.968;6.828;2022-12-18T08:40:03;-4.10;99.90
21590;DHT22;10957;50.968;6.828;2022-12-18T08:45:05;-3.80;99.90
21590;DHT22;10957;50.968;6.828;2022-12-18T08:50:06;-3.80;99.90
21590;DHT22;10957;50.968;6.828;2022-12-18T08:55:09;-3.80;99.90
21590;DHT22;10957;50.968;6.828;2022-12-18T09:00:11;-3.40;99.90
21590;DHT22;10957;50.968;6.828;2022-12-18T09:05:14;-3.40;99.90
21590;DHT22;10957;50.968;6.828;2022-12-18T09:10:15;-3.20;99.90
21590;DHT22;10957;50.968;6.828;2022-12-18T09:15:16;-3.20;99.90
21590;DHT22;10957;50.968;6.828;2022-12-18T09:20:18;-3.30;99.90
21590;DHT22;10957;50.968;6.828;2022-12-18T09:25:19;-3.30;99.90
21590;DHT22;10957;50.968;6.828;2022-12-18T09:30:21;-3.00;99.90
21590;DHT22;10957;50.968;6.828;2022-12-18T09:35:22;-3.10;99.90
21590;DHT22;10957;50.968;6.828;2022-12-18T09:40:26;-2.80;99.90
21590;DHT22;10957;50.968;6.828;2022-12-18T09:45:44;-2.50;99.90
21590;DHT22;10957;50.968;6.828;2022-12-18T09:50:47;-2.50;99.90
21590;DHT22;10957;50.968;6.828;2022-12-18T09:55:51;-2.80;99.90
21590;DHT22;10957;50.968;6.828;2022-12-18T10:00:53;-2.50;99.90
21590;DHT22;10957;50.968;6.828;2022-12-18T10:27:31;-1.90;99.90
21590;DHT22;10957;50.968;6.828;2022-12-18T10:32:35;-1.70;99.90
21590;DHT22;10957;50.968;6.828;2022-12-18T10:38:00;-1.40;99.90
21590;DHT22;10957;50.968;6.828;2022-12-18T10:48:27;-1.40;96.30
21590;DHT22;10957;50.968;6.828;2022-12-18T10:53:30;-1.30;95.70
21590;DHT22;10957;50.968;6.828;2022-12-18T10:58:34;-1.40;96.30
21590;DHT22;10957;50.968;6.828;2022-12-18T11:03:41;-1.00;93.50
21590;DHT22;10957;50.968;6.828;2022-12-18T11:08:57;-1.10;91.80
21590;DHT22;10957;50.968;6.828;2022-12-18T11:14:42;-1.30;87.40
21590;DHT22;10957;50.968;6.828;2022-12-18T11:24:36;-1.10;80.80
21590;DHT22;10957;50.968;6.828;2022-12-18T11:29:39;-0.90;83.30
21590;DHT22;10957;50.968;6.828;2022-12-18T11:34:46;-1.10;77.30
21590;DHT22;10957;50.968;6.828;2022-12-18T11:39:58;-0.90;70.50
21590;DHT22;10957;50.968;6.828;2022-12-18T11:50:21;-0.90;67.40
21590;DHT22;10957;50.968;6.828;2022-12-18T12:01:15;-0.80;70.70
21590;DHT22;10957;50.968;6.828;2022-12-18T12:17:26;-0.70;64.60
21590;DHT22;10957;50.968;6.828;2022-12-18T12:27:49;-0.80;60.40
21590;DHT22;10957;50.968;6.828;2022-12-18T12:33:07;-0.50;61.40
21590;DHT22;10957;50.968;6.828;2022-12-18T12:38:24;-0.80;64.20
21590;DHT22;10957;50.968;6.828;2022-12-18T12:43:33;-0.60;68.00
21590;DHT22;10957;50.968;6.828;2022-12-18T12:48:55;-0.80;62.80
21590;DHT22;10957;50.968;6.828;2022-12-18T12:53:59;-0.50;67.30
21590;DHT22;10957;50.968;6.828;2022-12-18T13:04:35;-0.80;64.60
21590;DHT22;10957;50.968;6.828;2022-12-18T13:10:13;-0.70;63.40
21590;DHT22;10957;50.968;6.828;2022-12-18T13:15:36;-0.50;64.30
21590;DHT22;10957;50.968;6.828;2022-12-18T13:20:43;-0.40;64.20
21590;DHT22;10957;50.968;6.828;2022-12-18T13:25:44;-0.60;65.00
21590;DHT22;10957;50.968;6.828;2022-12-18T13:30:47;-0.60;64.80
21590;DHT22;10957;50.968;6.828;2022-12-18T13:36:13;-0.70;60.60
21590;DHT22;10957;50.968;6.828;2022-12-18T13:41:21;-0.70;63.80
21590;DHT22;10957;50.968;6.828;2022-12-18T13:46:42;-0.80;63.10
21590;DHT22;10957;50.968;6.828;2022-12-18T13:51:47;-0.80;64.30
21590;DHT22;10957;50.968;6.828;2022-12-18T13:56:49;-0.90;63.50
21590;DHT22;10957;50.968;6.828;2022-12-18T14:01:59;-1.40;62.90
21590;DHT22;10957;50.968;6.828;2022-12-18T14:07:11;-1.10;66.20
21590;DHT22;10957;50.968;6.828;2022-12-18T14:12:19;-0.70;67.10
21590;DHT22;10957;50.968;6.828;2022-12-18T14:17:40;-1.40;70.40
21590;DHT22;10957;50.968;6.828;2022-12-18T14:22:48;-0.90;70.80
21590;DHT22;10957;50.968;6.828;2022-12-18T14:33:14;-1.00;71.90
21590;DHT22;10957;50.968;6.828;2022-12-18T14:38:22;-0.80;72.40
21590;DHT22;10957;50.968;6.828;2022-12-18T14:43:23;-0.80;75.60
21590;DHT22;10957;50.968;6.828;2022-12-18T14:48:41;-1.00;75.80
21590;DHT22;10957;50.968;6.828;2022-12-18T14:53:46;-1.50;76.30
21590;DHT22;10957;50.968;6.828;2022-12-18T14:59:23;-1.10;78.80
21590;DHT22;10957;50.968;6.828;2022-12-18T15:04:32;-1.00;79.00
21590;DHT22;10957;50.968;6.828;2022-12-18T15:09:37;-1.10;81.10
21590;DHT22;10957;50.968;6.828;2022-12-18T15:14:40;-1.00;81.60
21590;DHT22;10957;50.968;6.828;2022-12-18T15:19:43;-1.30;81.80
21590;DHT22;10957;50.968;6.828;2022-12-18T15:24:45;-0.90;83.90
21590;DHT22;10957;50.968;6.828;2022-12-18T15:35:22;-1.30;82.90
21590;DHT22;10957;50.968;6.828;2022-12-18T15:40:24;-1.10;84.10
21590;DHT22;10957;50.968;6.828;2022-12-18T15:45:25;-0.90;84.60
21590;DHT22;10957;50.968;6.828;2022-12-18T15:50:26;-1.00;82.60
21590;DHT22;10957;50.968;6.828;2022-12-18T15:55:27;-1.10;87.30
21590;DHT22;10957;50.968;6.828;2022-12-18T16:00:47;-1.30;85.80
21590;DHT22;10957;50.968;6.828;2022-12-18T16:05:48;-1.00;88.70
21590;DHT22;10957;50.968;6.828;2022-12-18T16:10:49;-1.60;90.20
21590;DHT22;10957;50.968;6.828;2022-12-18T16:15:51;-1.10;91.60
21590;DHT22;10957;50.968;6.828;2022-12-18T16:20:52;-1.20;93.40
21590;DHT22;10957;50.968;6.828;2022-12-18T16:25:53;-1.10;95.00
21590;DHT22;10957;50.968;6.828;2022-12-18T16:30:54;-1.20;97.90
21590;DHT22;10957;50.968;6.828;2022-12-18T16:35:56;-1.20;99.40
21590;DHT22;10957;50.968;6.828;2022-12-18T16:40:57;-1.20;99.90
21590;DHT22;10957;50.968;6.828;2022-12-18T16:46:16;-1.10;99.90
21590;DHT22;10957;50.968;6.828;2022-12-18T16:51:18;-1.20;99.90
21590;DHT22;10957;50.968;6.828;2022-12-18T16:56:19;-1.20;99.90
21590;DHT22;10957;50.968;6.828;2022-12-18T17:01:24;-1.30;99.90
21590;DHT22;10957;50.968;6.828;2022-12-18T17:06:28;-1.30;99.90
21590;DHT22;10957;50.968;6.828;2022-12-18T17:11:32;-1.40;99.90
21590;DHT22;10957;50.968;6.828;2022-12-18T17:16:33;-1.50;99.90
21590;DHT22;10957;50.968;6.828;2022-12-18T17:21:35;-1.50;99.90
21590;DHT22;10957;50.968;6.828;2022-12-18T17:26:36;-1.50;99.90
21590;DHT22;10957;50.968;6.828;2022-12-18T17:31:38;-1.70;99.90
21590;DHT22;10957;50.968;6.828;2022-12-18T17:36:39;-1.20;99.90
21590;DHT22;10957;50.968;6.828;2022-12-18T17:41:41;-1.30;99.90
21590;DHT22;10957;50.968;6.828;2022-12-18T17:46:42;-1.40;99.90
21590;DHT22;10957;50.968;6.828;2022-12-18T17:51:44;-1.60;99.90
21590;DHT22;10957;50.968;6.828;2022-12-18T17:56:45;-1.60;99.90
21590;DHT22;10957;50.968;6.828;2022-12-18T18:01:46;-1.40;99.90
21590;DHT22;10957;50.968;6.828;2022-12-18T18:06:47;-1.60;99.90
21590;DHT22;10957;50.968;6.828;2022-12-18T18:11:48;-1.70;99.90
21590;DHT22;10957;50.968;6.828;2022-12-18T18:17:08;-1.40;99.90
21590;DHT22;10957;50.968;6.828;2022-12-18T18:22:09;-1.60;99.90
21590;DHT22;10957;50.968;6.828;2022-12-18T18:27:11;-1.50;99.90
21590;DHT22;10957;50.968;6.828;2022-12-18T18:32:12;-1.40;99.90
21590;DHT22;10957;50.968;6.828;2022-12-18T18:37:13;-1.50;99.90
21590;DHT22;10957;50.968;6.828;2022-12-18T18:42:14;-1.30;99.90
21590;DHT22;10957;50.968;6.828;2022-12-18T18:47:16;-1.40;99.90
21590;DHT22;10957;50.968;6.828;2022-12-18T18:52:17;-1.30;99.90
21590;DHT22;10957;50.968;6.828;2022-12-18T18:57:18;-1.40;99.90
21590;DHT22;10957;50.968;6.828;2022-12-18T19:02:19;-1.70;99.90
21590;DHT22;10957;50.968;6.828;2022-12-18T19:07:20;-1.50;99.90
21590;DHT22;10957;50.968;6.828;2022-12-18T19:12:21;-1.20;99.90
21590;DHT22;10957;50.968;6.828;2022-12-18T19:17:42;-1.60;99.90
21590;DHT22;10957;50.968;6.828;2022-12-18T19:22:46;-1.20;99.90
21590;DHT22;10957;50.968;6.828;2022-12-18T19:27:47;-1.40;99.90
21590;DHT22;10957;50.968;6.828;2022-12-18T19:32:48;-1.10;99.90
21590;DHT22;10957;50.968;6.828;2022-12-18T19:37:49;-1.00;99.90
21590;DHT22;10957;50.968;6.828;2022-12-18T19:42:50;-1.20;99.90
21590;DHT22;10957;50.968;6.828;2022-12-18T19:47:52;-1.20;99.90
21590;DHT22;10957;50.968;6.828;2022-12-18T19:52:53;-1.10;99.90
21590;DHT22;10957;50.968;6.828;2022-12-18T19:57:55;-1.00;99.90
21590;DHT22;10957;50.968;6.828;2022-12-18T20:02:57;-1.70;99.90
21590;DHT22;10957;50.968;6.828;2022-12-18T20:07:58;-0.90;99.90
21590;DHT22;10957;50.968;6.828;2022-12-18T20:12:59;-1.20;99.90
21590;DHT22;10957;50.968;6.828;2022-12-18T20:18:00;-1.00;99.90
21590;DHT22;10957;50.968;6.828;2022-12-18T20:23:02;-1.00;99.90
21590;DHT22;10957;50.968;6.828;2022-12-18T20:28:04;-0.90;99.90
21590;DHT22;10957;50.968;6.828;2022-12-18T20:33:05;-1.40;99.90
21590;DHT22;10957;50.968;6.828;2022-12-18T20:38:06;-0.90;99.90
21590;DHT22;10957;50.968;6.828;2022-12-18T20:43:08;-1.10;99.90
21590;DHT22;10957;50.968;6.828;2022-12-18T20:48:09;-0.80;99.90
21590;DHT22;10957;50.968;6.828;2022-12-18T20:53:10;-0.80;99.90
21590;DHT22;10957;50.968;6.828;2022-12-18T20:58:11;-0.80;99.90
21590;DHT22;10957;50.968;6.828;2022-12-18T21:03:12;-0.90;99.90
21590;DHT22;10957;50.968;6.828;2022-12-18T21:08:14;-0.80;99.90
21590;DHT22;10957;50.968;6.828;2022-12-18T21:13:15;-0.80;99.90
21590;DHT22;10957;50.968;6.828;2022-12-18T21:18:20;-0.80;99.90
21590;DHT22;10957;50.968;6.828;2022-12-18T21:23:21;-0.80;99.90
21590;DHT22;10957;50.968;6.828;2022-12-18T21:28:22;-0.70;99.90
21590;DHT22;10957;50.968;6.828;2022-12-18T21:33:24;-0.70;99.90
21590;DHT22;10957;50.968;6.828;2022-12-18T21:38:26;-0.70;99.90
21590;DHT22;10957;50.968;6.828;2022-12-18T21:43:28;-1.30;99.90
21590;DHT22;10957;50.968;6.828;2022-12-18T21:48:55;-0.70;99.90
21590;DHT22;10957;50.968;6.828;2022-12-18T21:53:56;-1.10;99.90
21590;DHT22;10957;50.968;6.828;2022-12-18T21:58:58;-0.60;99.90
21590;DHT22;10957;50.968;6.828;2022-12-18T22:03:59;-0.60;99.90
21590;DHT22;10957;50.968;6.828;2022-12-18T22:09:00;-0.60;99.90
21590;DHT22;10957;50.968;6.828;2022-12-18T22:14:01;-1.20;99.90
21590;DHT22;10957;50.968;6.828;2022-12-18T22:19:02;-0.70;99.90
21590;DHT22;10957;50.968;6.828;2022-12-18T22:24:06;-0.50;99.90
21590;DHT22;10957;50.968;6.828;2022-12-18T22:29:16;-0.50;99.90
21590;DHT22;10957;50.968;6.828;2022-12-18T22:34:36;-0.40;99.90
21590;DHT22;10957;50.968;6.828;2022-12-18T22:39:38;-0.40;99.90
21590;DHT22;10957;50.968;6.828;2022-12-18T22:44:40;-0.90;99.90
21590;DHT22;10957;50.968;6.828;2022-12-18T22:49:41;-0.90;99.90
21590;DHT22;10957;50.968;6.828;2022-12-18T22:54:42;-0.40;99.90
21590;DHT22;10957;50.968;6.828;2022-12-18T22:59:43;-0.20;99.90
21590;DHT22;10957;50.968;6.828;2022-12-18T23:04:44;-0.40;99.90
21590;DHT22;10957;50.968;6.828;2022-12-18T23:09:46;-0.30;99.90
21590;DHT22;10957;50.968;6.828;2022-12-18T23:14:47;-0.10;99.90
21590;DHT22;10957;50.968;6.828;2022-12-18T23:19:48;-0.30;99.90
21590;DHT22;10957;50.968;6.828;2022-12-18T23:24:50;-0.10;99.90
21590;DHT22;10957;50.968;6.828;2022-12-18T23:29:51;-0.30;99.90
21590;DHT22;10957;50.968;6.828;2022-12-18T23:34:52;-0.10;99.90
21590;DHT22;10957;50.968;6.828;2022-12-18T23:39:53;-0.20;99.90
21590;DHT22;10957;50.968;6.828;2022-12-18T23:44:54;-0.10;99.90
21590;DHT22;10957;50.968;6.828;2022-12-18T23:49:55;-0.10;99.90
21590;DHT22;10957;50.968;6.828;2022-12-18T23:54:57;0.10;99.90
21590;DHT22;10957;50.968;6.828;2022-12-18T23:59:58;0.30;99.90
